Time;durP1;ratioP1;P1;durP2;ratioP2;P2;SDS_P1;SDS_P2;PMS_P1;PMS_P2;Temp;Humidity;BMP_temperature;BMP_pressure;BME280_temperature;BME280_humidity;BME280_pressure;Samples;Min_cycle;Max_cycle;Signal;HPM_P1;HPM_P2
2023/01/19 00:01:54;;;;;;;42.33;8.32;;;;;;;16.43;65.87;100164.38;5033357;28;20032;-84
2023/01/19 00:04:19;;;;;;;27.35;6.78;;;;;;;16.37;65.70;100154.19;5033216;28;20389;-83
2023/01/19 00:06:45;;;;;;;47.13;7.85;;;;;;;16.33;65.70;100159.97;5032916;28;20018;-83
2023/01/19 00:09:10;;;;;;;31.83;7.00;;;;;;;16.44;65.79;100161.50;5032622;28;20132;-83
2023/01/19 00:11:36;;;;;;;43.72;6.78;;;;;;;16.37;65.89;100146.06;5032912;28;20028;-83
2023/01/19 00:14:02;;;;;;;31.60;7.00;;;;;;;16.46;65.53;100158.59;5032568;28;20057;-83
2023/01/19 00:16:27;;;;;;;37.20;7.65;;;;;;;16.43;65.61;100148.94;5032959;28;20025;-83
2023/01/19 00:18:53;;;;;;;37.22;7.63;;;;;;;16.37;66.07;100163.19;5033715;28;20021;-83
2023/01/19 00:21:20;;;;;;;35.42;7.35;;;;;;;16.38;65.90;100148.63;5033701;28;20028;-84
2023/01/19 00:23:51;;;;;;;38.08;6.22;;;;;;;16.31;66.19;100151.19;5034419;28;20041;-84
2023/01/19 00:26:17;;;;;;;50.45;7.32;;;;;;;16.27;66.35;100149.81;5038533;28;20041;-87
2023/01/19 00:28:44;;;;;;;38.50;7.40;;;;;;;16.41;66.32;100164.56;5038064;28;20052;-84
2023/01/19 00:31:10;;;;;;;36.78;6.22;;;;;;;16.49;65.92;100182.69;5015857;28;20489;-85
2023/01/19 00:33:36;;;;;;;38.58;5.60;;;;;;;16.54;65.45;100174.88;5035412;28;20068;-84
2023/01/19 00:36:01;;;;;;;32.08;5.85;;;;;;;16.58;65.34;100184.38;5037741;28;20060;-84
2023/01/19 00:38:27;;;;;;;34.75;5.20;;;;;;;16.59;65.24;100175.22;5036634;28;20033;-86
2023/01/19 00:40:52;;;;;;;36.35;6.15;;;;;;;16.70;65.10;100182.97;5057476;28;20068;-87
2023/01/19 00:43:18;;;;;;;25.83;6.20;;;;;;;16.75;64.79;100192.31;5040511;28;20029;-86
2023/01/19 00:45:44;;;;;;;28.58;6.55;;;;;;;16.74;64.49;100168.03;5046478;28;20049;-83
2023/01/19 00:48:10;;;;;;;35.10;7.55;;;;;;;16.75;64.44;100186.03;5037774;28;20025;-85
2023/01/19 00:50:35;;;;;;;43.65;7.95;;;;;;;16.84;64.19;100190.41;5036220;28;20401;-83
2023/01/19 00:53:01;;;;;;;50.67;9.98;;;;;;;16.74;64.23;100151.75;5035029;28;20369;-86
2023/01/19 00:55:28;;;;;;;33.35;6.70;;;;;;;16.75;64.26;100151.59;5034744;28;20174;-83
2023/01/19 00:57:55;;;;;;;33.00;7.60;;;;;;;16.85;64.02;100159.50;5039029;28;20041;-84
2023/01/19 01:00:21;;;;;;;31.98;6.55;;;;;;;16.63;64.12;100133.13;5034038;28;20497;-85
2023/01/19 01:02:48;;;;;;;32.83;5.97;;;;;;;16.67;64.51;100157.03;5032558;28;20021;-84
2023/01/19 01:05:14;;;;;;;32.85;6.30;;;;;;;16.55;64.79;100139.44;5032127;28;20566;-83
2023/01/19 01:07:40;;;;;;;35.83;6.78;;;;;;;16.51;64.94;100137.22;5031778;28;20021;-84
2023/01/19 01:10:10;;;;;;;33.55;7.07;;;;;;;16.45;65.10;100135.19;5032400;28;20108;-84
2023/01/19 01:12:37;;;;;;;35.03;7.03;;;;;;;16.54;65.04;100143.19;5032590;28;20124;-84
2023/01/19 01:15:05;;;;;;;42.67;6.78;;;;;;;16.47;65.26;100135.88;5032106;28;20030;-82
2023/01/19 01:17:30;;;;;;;46.05;7.03;;;;;;;16.41;65.20;100140.13;5031979;28;20076;-83
2023/01/19 01:19:55;;;;;;;33.22;6.65;;;;;;;16.39;65.52;100125.03;5032814;28;20144;-84
2023/01/19 01:22:21;;;;;;;29.10;6.22;;;;;;;16.21;65.75;100096.25;5032527;28;20032;-83
2023/01/19 01:24:46;;;;;;;46.22;8.68;;;;;;;16.34;65.91;100122.84;5014219;28;20033;-83
2023/01/19 01:27:12;;;;;;;44.88;6.03;;;;;;;16.37;65.52;100110.78;5035780;28;20268;-82
2023/01/19 01:29:39;;;;;;;38.97;7.78;;;;;;;16.31;65.63;100096.91;5038071;28;20029;-82
2023/01/19 01:32:06;;;;;;;35.35;7.40;;;;;;;16.27;65.74;100098.25;5032928;28;20022;-83
2023/01/19 01:34:32;;;;;;;41.70;7.47;;;;;;;16.33;65.87;100107.56;5031262;28;20031;-83
2023/01/19 01:36:58;;;;;;;38.30;7.15;;;;;;;16.25;65.66;100092.16;5030647;28;20033;-83
2023/01/19 01:39:23;;;;;;;38.03;6.47;;;;;;;16.38;65.60;100107.06;5030827;28;20036;-83
2023/01/19 01:41:49;;;;;;;38.90;7.15;;;;;;;16.37;65.76;100116.22;5030699;28;20025;-84
2023/01/19 01:44:52;;;;;;;30.27;5.82;;;;;;;16.43;65.69;100115.50;5030561;28;20050;-83
2023/01/19 01:47:31;;;;;;;39.00;9.50;;;;;;;16.37;65.92;100116.22;5031221;28;20496;-84
2023/01/19 01:50:03;;;;;;;43.85;8.63;;;;;;;16.24;66.11;100101.31;5030690;28;20105;-84
2023/01/19 01:52:30;;;;;;;43.60;9.07;;;;;;;16.27;66.42;100122.69;5031308;28;20029;-83
2023/01/19 01:54:57;;;;;;;29.20;5.93;;;;;;;16.34;66.13;100118.25;5031022;28;20034;-83
2023/01/19 01:57:26;;;;;;;35.63;5.95;;;;;;;16.39;65.70;100103.34;5030785;28;20021;-83
2023/01/19 01:59:54;;;;;;;38.78;7.80;;;;;;;16.36;66.15;100065.69;5031223;28;20033;-82
2023/01/19 02:05:16;;;;;;;39.53;6.95;;;;;;;16.31;65.72;100096.91;5032340;28;20032;-83
2023/01/19 02:13:21;;;;;;;35.28;6.38;;;;;;;16.32;65.72;100109.47;5031766;28;20156;-83
2023/01/19 02:15:53;;;;;;;36.72;7.35;;;;;;;16.32;65.84;100120.31;5030458;28;20029;-83
2023/01/19 02:18:21;;;;;;;31.75;6.00;;;;;;;16.33;66.21;100121.97;5012694;28;20018;-83
2023/01/19 02:21:21;;;;;;;32.63;5.55;;;;;;;16.40;65.65;100135.72;5030698;28;20025;-84
2023/01/19 02:23:54;;;;;;;35.05;6.63;;;;;;;16.46;65.71;100142.31;4931338;29;20036;-83
2023/01/19 02:26:19;;;;;;;;;;;;;;;16.44;65.54;100133.50;4931574;29;20055;-84
2023/01/19 02:28:52;;;;;;;31.97;6.20;;;;;;;16.36;65.49;100114.53;4934694;29;19919;-84
2023/01/19 02:31:18;;;;;;;51.58;8.02;;;;;;;16.46;65.67;100142.31;4918595;29;20303;-83
2023/01/19 02:33:44;;;;;;;44.28;8.70;;;;;;;16.44;65.60;100122.63;4931024;29;20038;-86
2023/01/19 02:36:12;;;;;;;57.40;7.32;;;;;;;16.47;65.18;100112.28;4930338;29;20071;-82
2023/01/19 02:38:40;;;;;;;34.67;7.00;;;;;;;16.57;65.25;100131.97;4930036;29;20035;-85
2023/01/19 02:41:07;;;;;;;34.50;5.57;;;;;;;16.59;65.23;100148.06;4929827;29;20058;-85
2023/01/19 02:43:34;;;;;;;39.97;7.25;;;;;;;16.58;65.14;100146.38;4930001;29;20035;-83
2023/01/19 02:46:00;;;;;;;35.72;7.30;;;;;;;16.63;65.21;100150.28;4930596;29;20531;-87
2023/01/19 02:48:25;;;;;;;41.45;8.57;;;;;;;16.64;64.92;100149.22;4930632;29;20221;-84
2023/01/19 02:51:03;;;;;;;39.17;6.55;;;;;;;16.77;65.02;100157.69;4930281;29;20499;-85
2023/01/19 02:53:31;;;;;;;30.70;6.38;;;;;;;16.72;64.75;100142.94;4930041;29;20046;-84
2023/01/19 02:56:25;;;;;;;40.90;6.53;;;;;;;16.86;64.54;100161.19;4930188;29;20055;-84
2023/01/19 02:59:14;;;;;;;35.72;7.28;;;;;;;16.82;64.33;100154.41;4858142;29;20140;-83
2023/01/19 03:02:29;;;;;;;43.47;7.43;;;;;;;16.83;64.35;100156.13;4926999;29;20516;-84
2023/01/19 03:05:32;;;;;;;35.10;7.82;;;;;;;16.77;64.66;100163.09;4892033;29;20402;-84
2023/01/19 03:08:20;;;;;;;44.85;6.63;;;;;;;16.77;64.55;100163.09;4892317;29;20105;-83
2023/01/19 03:11:04;;;;;;;39.78;7.05;;;;;;;16.73;64.79;100166.34;4836809;29;20060;-83
2023/01/19 03:13:52;;;;;;;35.80;7.53;;;;;;;16.70;65.15;100172.97;4838294;29;20038;-83
2023/01/19 03:16:23;;;;;;;46.45;8.45;;;;;;;16.64;65.21;100164.69;4840961;29;20098;-83
2023/01/19 03:18:53;;;;;;;44.70;6.50;;;;;;;16.67;65.45;100177.91;4840643;29;20034;-84
2023/01/19 03:21:24;;;;;;;41.08;7.45;;;;;;;16.63;65.77;100176.56;4840636;29;20091;-83
2023/01/19 03:23:51;;;;;;;29.27;7.18;;;;;;;16.66;65.69;100185.22;4841150;29;20476;-83
2023/01/19 03:26:25;;;;;;;34.45;6.85;;;;;;;16.60;65.54;100171.50;4841026;29;20072;-83
2023/01/19 03:28:51;;;;;;;48.75;7.40;;;;;;;16.65;65.51;100169.09;4841789;29;20601;-86
2023/01/19 03:31:21;;;;;;;36.58;6.82;;;;;;;16.68;65.62;100168.75;4845246;29;20038;-83
2023/01/19 03:33:52;;;;;;;42.83;7.55;;;;;;;16.71;65.62;100165.69;4844269;29;20040;-83
2023/01/19 03:36:33;;;;;;;38.80;8.35;;;;;;;16.68;65.65;100187.75;4863634;29;20493;-82
2023/01/19 03:39:02;;;;;;;58.95;8.48;;;;;;;16.69;65.71;100186.75;4878096;29;20029;-83
2023/01/19 03:41:30;;;;;;;31.70;6.75;;;;;;;16.74;65.50;100176.19;4884852;29;20111;-84
2023/01/19 03:43:57;;;;;;;35.78;7.38;;;;;;;16.70;65.83;100188.41;4933500;29;20064;-84
2023/01/19 03:46:24;;;;;;;46.80;6.68;;;;;;;16.74;66.32;100200.63;4933187;29;20499;-83
2023/01/19 03:48:50;;;;;;;55.85;8.35;;;;;;;16.73;65.97;100182.63;5026708;28;20091;-84
2023/01/19 03:51:18;;;;;;;53.22;9.20;;;;;;;16.75;65.96;100180.59;5032882;28;20405;-83
2023/01/19 03:53:44;;;;;;;35.80;7.70;;;;;;;16.75;65.92;100180.59;5033254;28;20112;-82
2023/01/19 03:56:21;;;;;;;45.05;8.50;;;;;;;16.77;65.95;100179.41;5033230;28;20474;-84
2023/01/19 03:58:47;;;;;;;38.40;7.85;;;;;;;16.78;65.98;100191.97;5032814;28;20029;-82
2023/01/19 04:01:14;;;;;;;39.95;6.75;;;;;;;16.75;66.00;100188.75;5033209;28;20029;-82
2023/01/19 04:03:40;;;;;;;37.83;6.13;;;;;;;16.79;66.22;100188.22;5033237;28;20029;-83
2023/01/19 04:06:06;;;;;;;60.05;8.40;;;;;;;16.82;65.95;100192.44;5015802;28;20539;-83
2023/01/19 04:08:32;;;;;;;59.00;8.20;;;;;;;16.73;66.34;100179.91;5033358;28;20084;-82
2023/01/19 04:10:58;;;;;;;64.97;8.35;;;;;;;16.75;66.22;100191.47;5033260;28;20197;-83
2023/01/19 04:13:23;;;;;;;36.67;7.18;;;;;;;16.72;66.17;100198.09;5033257;28;20033;-83
2023/01/19 04:15:49;;;;;;;44.95;9.00;;;;;;;16.67;66.56;100200.47;5032788;28;20036;-83
2023/01/19 04:18:14;;;;;;;49.75;8.88;;;;;;;16.70;66.90;100211.00;5015855;28;20056;-83
2023/01/19 04:20:39;;;;;;;41.30;7.80;;;;;;;16.69;66.58;100200.31;5032989;28;20030;-83
2023/01/19 04:23:05;;;;;;;42.67;10.25;;;;;;;16.68;66.61;100193.19;5032974;28;20120;-83
2023/01/19 04:25:30;;;;;;;45.25;7.32;;;;;;;16.74;66.67;100203.34;5032070;28;20025;-85
2023/01/19 04:27:59;;;;;;;42.20;9.13;;;;;;;16.78;66.63;100207.41;5034123;28;20041;-84
2023/01/19 04:30:26;;;;;;;58.13;9.20;;;;;;;16.75;66.70;100202.34;5034183;28;20076;-83
2023/01/19 04:32:52;;;;;;;45.05;8.40;;;;;;;16.78;66.36;100196.56;5038889;28;20043;-84
2023/01/19 04:35:18;;;;;;;49.17;8.70;;;;;;;16.74;66.48;100197.91;5038145;28;20033;-84
2023/01/19 04:37:43;;;;;;;51.53;9.15;;;;;;;16.73;66.71;100207.94;5018203;28;21113;-83
2023/01/19 04:40:10;;;;;;;48.05;8.02;;;;;;;16.74;66.92;100222.34;5034611;28;20075;-83
2023/01/19 04:42:35;;;;;;;36.22;8.63;;;;;;;16.68;66.95;100213.03;5050629;28;20034;-84
2023/01/19 04:45:01;;;;;;;50.00;9.27;;;;;;;16.73;66.91;100223.38;5057160;28;20076;-85
2023/01/19 04:47:26;;;;;;;40.10;8.23;;;;;;;16.69;66.84;100213.91;5056348;28;20026;-83
2023/01/19 04:49:51;;;;;;;48.15;9.98;;;;;;;16.71;66.94;100222.72;5035786;28;20445;-81
2023/01/19 04:52:17;;;;;;;47.47;9.80;;;;;;;16.71;66.76;100228.13;5037113;28;20396;-82
2023/01/19 04:54:42;;;;;;;50.30;8.23;;;;;;;16.72;67.04;100257.84;5038031;28;20021;-81
2023/01/19 04:57:08;;;;;;;51.17;9.88;;;;;;;16.60;67.01;100228.50;5044982;28;20404;-83
2023/01/19 04:59:33;;;;;;;44.08;8.48;;;;;;;16.44;67.52;100221.22;5043417;28;20029;-82
2023/01/19 05:01:59;;;;;;;45.35;7.82;;;;;;;16.64;67.19;100248.84;5041749;28;20377;-79
2023/01/19 05:04:25;;;;;;;56.85;8.35;;;;;;;16.64;67.07;100257.00;5039713;28;20092;-81
2023/01/19 05:06:52;;;;;;;44.75;7.65;;;;;;;16.63;67.16;100247.19;5031475;28;20486;-82
2023/01/19 05:09:18;;;;;;;51.40;8.88;;;;;;;16.65;66.97;100250.56;5039596;28;20029;-81
2023/01/19 05:11:44;;;;;;;43.33;9.10;;;;;;;16.70;66.89;100253.59;5034272;28;20021;-82
2023/01/19 05:14:09;;;;;;;45.10;9.07;;;;;;;16.70;66.76;100259.03;5031200;28;20029;-81
2023/01/19 05:16:35;;;;;;;59.63;8.45;;;;;;;16.62;66.80;100261.75;5032001;28;20049;-87
2023/01/19 05:19:00;;;;;;;57.75;11.05;;;;;;;16.59;66.83;100251.25;5034273;28;20029;-87
2023/01/19 05:21:27;;;;;;;45.03;8.77;;;;;;;16.59;66.71;100248.53;5035382;28;20069;-84
2023/01/19 05:23:52;;;;;;;57.67;8.50;;;;;;;16.57;66.95;100247.88;5032546;28;20527;-83
2023/01/19 05:26:18;;;;;;;58.25;8.90;;;;;;;16.54;67.04;100249.06;5036120;28;20100;-84
2023/01/19 05:28:43;;;;;;;58.70;9.68;;;;;;;16.68;66.62;100255.63;5020312;28;20064;-82
2023/01/19 05:31:09;;;;;;;56.85;9.75;;;;;;;16.64;66.63;100247.00;5032161;28;20037;-82
2023/01/19 05:33:34;;;;;;;57.70;9.10;;;;;;;16.60;66.78;100259.22;5041320;28;20018;-81
2023/01/19 05:36:00;;;;;;;52.10;10.68;;;;;;;16.65;66.81;100266.84;5026625;28;20052;-87
2023/01/19 05:38:25;;;;;;;47.05;9.43;;;;;;;16.59;66.55;100245.81;5036834;28;20030;-90
2023/01/19 05:40:57;;;;;;;49.67;10.25;;;;;;;16.74;66.28;100282.09;5033948;28;20025;-87
2023/01/19 05:43:24;;;;;;;62.05;11.32;;;;;;;16.79;66.03;100277.00;5034271;28;20033;-87
2023/01/19 05:45:50;;;;;;;57.47;9.68;;;;;;;16.75;65.85;100262.09;5016093;28;20401;-85
2023/01/19 05:48:15;;;;;;;39.25;7.38;;;;;;;16.76;65.97;100274.63;5033149;28;20052;-85
2023/01/19 05:50:41;;;;;;;42.63;6.93;;;;;;;16.69;65.73;100266.34;5033667;28;20021;-86
2023/01/19 05:53:07;;;;;;;54.28;9.93;;;;;;;16.71;65.94;100282.44;5032306;28;20057;-84
2023/01/19 05:55:32;;;;;;;53.38;10.13;;;;;;;16.70;66.03;100287.03;5034203;28;20116;-87
2023/01/19 05:57:58;;;;;;;63.65;8.65;;;;;;;16.80;65.92;100297.72;5034296;28;20447;-86
2023/01/19 06:00:26;;;;;;;49.92;8.23;;;;;;;16.75;65.90;100291.97;5034779;28;20461;-87
2023/01/19 06:02:52;;;;;;;56.33;9.38;;;;;;;16.78;65.60;100294.31;5035111;28;20021;-87
2023/01/19 06:05:18;;;;;;;71.18;9.35;;;;;;;16.84;65.81;100316.22;5016756;28;20444;-87
2023/01/19 06:07:43;;;;;;;55.13;10.07;;;;;;;16.85;65.63;100303.47;5016493;28;20030;-87
2023/01/19 06:10:09;;;;;;;51.60;10.57;;;;;;;16.89;65.41;100318.41;5033835;28;20033;-87
2023/01/19 06:12:36;;;;;;;58.38;9.05;;;;;;;16.86;64.99;100302.44;5033948;28;20386;-91
2023/01/19 06:15:01;;;;;;;54.70;10.20;;;;;;;16.85;64.91;100304.31;5016819;28;20037;-88
2023/01/19 06:17:27;;;;;;;57.13;10.15;;;;;;;17.07;64.73;100343.50;5035626;28;20056;-87
2023/01/19 06:19:52;;;;;;;46.33;9.45;;;;;;;17.03;64.72;100330.44;5035253;28;20675;-86
2023/01/19 06:22:18;;;;;;;56.30;9.75;;;;;;;17.04;64.62;100332.13;4993273;28;20556;-86
2023/01/19 06:24:43;;;;;;;42.67;8.27;;;;;;;17.08;64.32;100350.63;4993797;28;20465;-86
2023/01/19 06:27:10;;;;;;;45.08;8.73;;;;;;;17.01;64.32;100335.19;4994355;28;20273;-85
2023/01/19 06:29:35;;;;;;;46.03;9.23;;;;;;;17.08;64.33;100345.19;4994141;28;20057;-88
2023/01/19 06:32:00;;;;;;;70.65;11.05;;;;;;;17.11;64.19;100344.84;4999211;28;20034;-93
2023/01/19 06:34:27;;;;;;;58.47;11.60;;;;;;;17.13;64.27;100331.94;5015698;28;20046;-90
2023/01/19 06:36:57;;;;;;;80.22;21.85;;;;;;;17.21;63.74;100341.94;5015164;28;20043;-89
2023/01/19 06:39:22;;;;;;;61.80;10.90;;;;;;;17.05;64.00;100329.25;4992964;28;20455;-89
2023/01/19 06:41:48;;;;;;;61.60;9.57;;;;;;;17.26;63.63;100348.53;4992343;28;20045;-87
2023/01/19 06:44:14;;;;;;;46.63;10.75;;;;;;;17.36;63.58;100349.19;4991299;28;20054;-88
2023/01/19 06:46:39;;;;;;;80.53;12.95;;;;;;;17.38;63.35;100339.00;4992244;28;20057;-87
2023/01/19 06:49:05;;;;;;;62.78;12.95;;;;;;;17.49;63.06;100362.22;4975171;28;20046;-87
2023/01/19 06:51:30;;;;;;;54.88;9.25;;;;;;;17.46;62.96;100348.16;4976414;28;20026;-88
2023/01/19 06:53:56;;;;;;;56.08;10.32;;;;;;;17.39;63.14;100354.28;5024232;28;20095;-88
2023/01/19 06:56:22;;;;;;;62.72;12.65;;;;;;;17.45;62.74;100350.00;5033474;28;20028;-86
2023/01/19 06:58:49;;;;;;;81.00;11.63;;;;;;;17.42;62.67;100345.78;5033323;28;20030;-87
2023/01/19 07:01:14;;;;;;;64.05;13.23;;;;;;;17.34;63.00;100345.78;5032919;28;20450;-86
2023/01/19 07:03:40;;;;;;;65.13;9.90;;;;;;;17.30;63.12;100339.03;5015047;28;20030;-88
2023/01/19 07:06:06;;;;;;;65.85;11.07;;;;;;;17.24;63.72;100345.16;5032888;28;20029;-87
2023/01/19 07:08:33;;;;;;;72.65;23.38;;;;;;;17.08;63.69;100323.47;5014973;28;20033;-89
2023/01/19 07:11:05;;;;;;;76.43;11.13;;;;;;;17.27;63.33;100344.81;5033250;28;20538;-86
2023/01/19 07:13:32;;;;;;;60.97;11.33;;;;;;;17.25;63.29;100330.53;5032800;28;20029;-86
2023/01/19 07:15:57;;;;;;;76.00;11.52;;;;;;;17.40;62.90;100350.53;5035652;28;20113;-87
2023/01/19 07:18:23;;;;;;;104.45;14.77;;;;;;;17.39;63.16;100348.00;5033493;28;20563;-88
2023/01/19 07:20:48;;;;;;;60.45;11.10;;;;;;;17.12;62.97;100319.38;5033268;28;20029;-86
2023/01/19 07:23:15;;;;;;;56.25;10.50;;;;;;;17.04;63.54;100329.41;5033050;28;20052;-86
2023/01/19 07:25:44;;;;;;;69.47;13.75;;;;;;;17.08;63.69;100328.91;5016021;28;20499;-86
2023/01/19 07:28:11;;;;;;;37.17;8.70;;;;;;;17.04;63.83;100334.84;5035618;28;20048;-87
2023/01/19 07:30:37;;;;;;;64.22;11.65;;;;;;;16.95;63.92;100320.44;5034975;28;20481;-88
2023/01/19 07:33:02;;;;;;;44.45;8.93;;;;;;;16.98;63.65;100306.50;5044002;28;20091;-87
2023/01/19 07:35:28;;;;;;;62.33;10.02;;;;;;;17.04;63.51;100315.81;5054541;28;20060;-90
2023/01/19 07:37:54;;;;;;;64.72;9.63;;;;;;;17.02;63.40;100329.59;5050388;28;20034;-89
2023/01/19 07:40:19;;;;;;;73.75;12.75;;;;;;;17.08;63.38;100345.19;5015478;28;20022;-89
2023/01/19 07:42:47;;;;;;;61.25;9.38;;;;;;;17.06;63.33;100344.53;5015389;28;20029;-89
2023/01/19 07:45:14;;;;;;;57.42;8.30;;;;;;;17.07;63.17;100343.50;5033036;28;20080;-87
2023/01/19 07:47:42;;;;;;;52.40;9.35;;;;;;;17.02;63.01;100337.75;5014963;28;20032;-88
2023/01/19 07:50:09;;;;;;;63.78;16.10;;;;;;;17.09;62.90;100346.91;5034441;28;20033;-87
2023/01/19 07:52:34;;;;;;;54.90;9.70;;;;;;;17.12;62.69;100340.28;5015090;28;20131;-89
2023/01/19 07:54:59;;;;;;;64.45;11.07;;;;;;;17.14;62.37;100347.22;5032152;28;20030;-87
2023/01/19 07:57:25;;;;;;;76.05;9.40;;;;;;;17.31;62.34;100357.00;5032340;28;20022;-87
2023/01/19 07:59:50;;;;;;;48.45;10.85;;;;;;;17.31;61.97;100356.16;5017806;28;20080;-87
2023/01/19 08:02:16;;;;;;;48.28;9.95;;;;;;;17.38;61.78;100351.72;5036608;28;20029;-87
2023/01/19 08:04:42;;;;;;;42.83;8.20;;;;;;;17.39;61.31;100348.00;5036689;28;20087;-87
2023/01/19 08:07:08;;;;;;;51.35;8.07;;;;;;;17.50;61.58;100371.22;5036792;28;20477;-88
2023/01/19 08:09:34;;;;;;;48.22;9.10;;;;;;;17.55;61.22;100358.81;5036362;28;20025;-88
2023/01/19 08:11:59;;;;;;;54.42;10.18;;;;;;;17.58;61.10;100368.53;5036556;28;20030;-88
2023/01/19 08:14:25;;;;;;;43.45;9.82;;;;;;;17.54;60.94;100364.41;5036659;28;20036;-88
2023/01/19 08:16:50;;;;;;;50.83;8.88;;;;;;;17.33;61.15;100343.25;5019473;28;20033;-86
2023/01/19 08:19:18;;;;;;;62.60;9.70;;;;;;;17.45;61.35;100371.75;5023555;28;20027;-89
2023/01/19 08:21:45;;;;;;;52.72;8.85;;;;;;;17.55;61.04;100360.72;5026734;28;20044;-88
2023/01/19 08:24:20;;;;;;;46.05;9.07;;;;;;;17.56;61.15;100381.44;5039487;28;20034;-85
2023/01/19 08:26:45;;;;;;;52.67;9.25;;;;;;;17.37;61.24;100360.91;5038618;28;20029;-88
2023/01/19 08:29:11;;;;;;;57.60;8.93;;;;;;;17.48;61.15;100386.88;5039076;28;20032;-90
2023/01/19 08:31:37;;;;;;;58.90;8.32;;;;;;;17.59;61.14;100394.69;5022012;28;20026;-88
2023/01/19 08:34:02;;;;;;;74.75;12.65;;;;;;;17.62;60.87;100392.47;5051726;28;20028;-93
2023/01/19 08:36:28;;;;;;;75.15;13.73;;;;;;;17.67;60.70;100387.34;5057964;28;20445;-91
2023/01/19 08:38:53;;;;;;;62.75;10.38;;;;;;;17.80;60.25;100389.50;5033756;28;20061;-87
2023/01/19 08:41:19;;;;;;;54.97;8.68;;;;;;;17.91;59.91;100392.69;5019625;28;20021;-88
2023/01/19 08:43:45;;;;;;;64.47;9.15;;;;;;;17.91;59.50;100394.56;5046944;28;20026;-87
2023/01/19 08:46:11;;;;;;;52.95;8.85;;;;;;;17.95;59.05;100398.59;5039088;28;20021;-86
2023/01/19 08:48:37;;;;;;;84.25;10.85;;;;;;;18.05;58.66;100380.19;5037020;28;20041;-87
2023/01/19 08:51:03;;;;;;;61.70;11.00;;;;;;;18.09;58.91;100373.38;5045758;28;20020;-89
2023/01/19 08:53:28;;;;;;;44.00;9.77;;;;;;;18.29;58.76;100387.34;5039667;28;20033;-87
2023/01/19 08:55:56;;;;;;;70.25;12.00;;;;;;;18.21;58.38;100354.75;5057697;28;20071;-90
2023/01/19 08:58:22;;;;;;;49.85;10.70;;;;;;;18.18;58.67;100363.25;5037779;28;20045;-86
2023/01/19 09:00:51;;;;;;;72.30;11.15;;;;;;;18.20;58.71;100348.44;5055783;28;20064;-88
2023/01/19 09:03:18;;;;;;;66.85;9.40;;;;;;;18.42;58.21;100357.66;5047974;28;20038;-87
2023/01/19 09:05:44;;;;;;;47.97;8.65;;;;;;;18.44;57.15;100344.69;5039982;28;20045;-88
2023/01/19 09:08:12;;;;;;;58.75;10.50;;;;;;;18.42;56.90;100327.69;5003534;28;20393;-87
2023/01/19 09:10:49;;;;;;;57.05;11.18;;;;;;;18.68;56.90;100358.16;5042798;28;20036;-87
2023/01/19 09:13:15;;;;;;;63.70;11.95;;;;;;;18.66;56.28;100356.63;5042528;28;20029;-87
2023/01/19 09:15:42;;;;;;;60.50;10.63;;;;;;;18.67;56.37;100333.81;5035461;28;20033;-87
2023/01/19 09:18:13;;;;;;;54.35;10.48;;;;;;;18.78;56.02;100330.63;5034685;28;20202;-88
2023/01/19 09:20:41;;;;;;;77.30;11.10;;;;;;;18.83;55.90;100320.03;5035036;28;20029;-87
2023/01/19 09:23:10;;;;;;;53.92;11.85;;;;;;;18.97;55.66;100319.22;5035840;28;20487;-87
2023/01/19 09:25:37;;;;;;;60.05;10.55;;;;;;;19.12;55.46;100325.50;5035613;28;20028;-87
2023/01/19 09:28:05;;;;;;;60.08;11.27;;;;;;;19.10;54.92;100319.41;5036742;28;20047;-88
2023/01/19 09:30:31;;;;;;;69.32;11.13;;;;;;;19.25;54.94;100319.41;5037559;28;20021;-88
2023/01/19 09:33:03;;;;;;;57.65;9.05;;;;;;;19.23;54.79;100319.63;5037885;28;20029;-88
2023/01/19 09:35:30;;;;;;;55.05;11.32;;;;;;;19.25;54.82;100312.09;5048845;28;20164;-91
2023/01/19 09:37:55;;;;;;;67.60;11.40;;;;;;;19.28;54.57;100306.25;5054775;28;20032;-88
2023/01/19 09:40:21;;;;;;;51.40;9.90;;;;;;;19.37;54.39;100305.13;5030498;28;20037;-88
2023/01/19 09:42:58;;;;;;;65.95;11.45;;;;;;;19.46;54.15;100314.06;5034844;28;20021;-87
2023/01/19 09:45:38;;;;;;;60.13;11.88;;;;;;;19.51;54.48;100317.91;5036143;28;20050;-89
2023/01/19 09:48:10;;;;;;;69.18;10.63;;;;;;;19.50;54.43;100310.78;5033840;28;20025;-87
2023/01/19 09:50:45;;;;;;;39.35;10.68;;;;;;;19.30;54.74;100303.31;5033937;28;20040;-86
2023/01/19 09:53:42;;;;;;;56.13;10.15;;;;;;;19.26;55.28;100304.75;5034861;28;20037;-87
2023/01/19 09:56:16;;;;;;;80.32;11.63;;;;;;;19.37;54.96;100305.13;5035158;28;20040;-87
2023/01/19 09:58:42;;;;;;;68.65;11.95;;;;;;;19.39;54.59;100283.97;5034720;28;20516;-88
2023/01/19 10:01:33;;;;;;;50.17;9.57;;;;;;;19.60;54.02;100298.72;5035342;28;20025;-87
2023/01/19 10:04:33;;;;;;;63.03;10.70;;;;;;;19.62;53.94;100296.66;4936518;29;20122;-88
2023/01/19 10:07:28;;;;;;;70.40;10.73;;;;;;;19.49;53.82;100275.50;4934902;29;20040;-89
2023/01/19 10:10:06;;;;;;;85.80;11.25;;;;;;;19.61;53.84;100289.50;4934232;29;20087;-87
2023/01/19 10:12:36;;;;;;;48.38;9.65;;;;;;;19.62;53.54;100281.13;4934182;29;20031;-87
2023/01/19 10:15:19;;;;;;;49.50;10.68;;;;;;;19.58;52.93;100271.63;4935314;29;20036;-87
2023/01/19 10:18:00;;;;;;;69.90;9.27;;;;;;;19.52;52.32;100270.50;4936968;29;20042;-86
2023/01/19 10:20:32;;;;;;;61.30;9.88;;;;;;;19.51;51.28;100246.13;4934926;29;20039;-88
2023/01/19 10:22:59;;;;;;;47.50;10.00;;;;;;;19.65;50.91;100268.97;4932455;29;20033;-87
2023/01/19 10:25:26;;;;;;;90.03;11.13;;;;;;;19.59;50.63;100253.38;4936188;29;20032;-88
2023/01/19 10:27:51;;;;;;;46.42;8.55;;;;;;;19.66;50.94;100259.78;4934751;29;20142;-89
2023/01/19 10:30:26;;;;;;;49.40;8.70;;;;;;;19.66;50.75;100273.41;4935877;29;20082;-88
2023/01/19 10:32:52;;;;;;;44.15;8.30;;;;;;;19.58;50.84;100238.88;4937471;29;20043;-89
2023/01/19 10:35:23;;;;;;;53.75;8.63;;;;;;;19.70;50.56;100231.03;4936618;29;20075;-89
2023/01/19 10:37:50;;;;;;;53.30;8.35;;;;;;;19.66;50.58;100265.22;4955560;29;20027;-91
2023/01/19 10:40:53;;;;;;;64.68;8.13;;;;;;;19.66;50.24;100255.16;4984591;28;20041;-88
2023/01/19 10:43:40;;;;;;;58.10;8.32;;;;;;;19.65;50.56;100242.56;5035272;28;20033;-90
2023/01/19 10:46:36;;;;;;;42.15;7.50;;;;;;;19.68;50.38;100253.06;5015994;28;20041;-88
2023/01/19 10:49:02;;;;;;;52.80;8.27;;;;;;;19.67;50.33;100255.97;4918188;29;20087;-87
2023/01/19 10:51:28;;;;;;;45.28;8.13;;;;;;;19.49;50.13;100221.81;4933766;29;20046;-87
2023/01/19 10:54:00;;;;;;;75.00;9.45;;;;;;;19.52;50.07;100226.88;4933577;29;20044;-88
2023/01/19 10:56:33;;;;;;;75.75;9.70;;;;;;;19.52;49.96;100253.28;4933878;29;20035;-86
2023/01/19 10:59:00;;;;;;;49.17;8.55;;;;;;;19.51;49.37;100247.00;4934144;29;20039;-87
2023/01/19 11:01:29;;;;;;;47.25;7.38;;;;;;;19.51;49.49;100248.88;4934100;29;20043;-89
2023/01/19 11:04:02;;;;;;;50.08;8.15;;;;;;;19.33;49.72;100199.31;4938766;29;20026;-87
2023/01/19 11:06:29;;;;;;;53.63;7.28;;;;;;;19.39;49.61;100232.16;4933982;29;20039;-90
2023/01/19 11:09:13;;;;;;;73.68;8.48;;;;;;;19.39;49.51;100234.88;4937247;29;20038;-87
2023/01/19 11:11:50;;;;;;;69.43;8.20;;;;;;;19.36;49.81;100243.41;4937272;29;20036;-87
2023/01/19 11:14:22;;;;;;;42.75;7.55;;;;;;;19.22;49.86;100216.19;4936869;29;20031;-87
2023/01/19 11:16:51;;;;;;;61.85;8.75;;;;;;;19.44;49.84;100239.78;4918663;29;20110;-87
2023/01/19 11:19:29;;;;;;;43.42;8.25;;;;;;;19.34;50.28;100231.88;4937161;29;20087;-88
2023/01/19 11:22:23;;;;;;;54.08;7.97;;;;;;;19.39;50.24;100243.06;4933194;29;20039;-89
2023/01/19 11:24:49;;;;;;;46.00;7.97;;;;;;;19.39;50.23;100237.59;4898624;29;20036;-89
2023/01/19 11:27:19;;;;;;;34.30;7.35;;;;;;;19.23;50.46;100216.00;4917690;29;20535;-88
2023/01/19 11:30:14;;;;;;;43.92;7.90;;;;;;;19.28;50.60;100221.72;4935241;29;20048;-87
2023/01/19 11:32:40;;;;;;;43.08;8.45;;;;;;;19.31;50.64;100240.44;4935656;29;20508;-87